sensor_id;sensor_type;location;lat;lon;timestamp;temperature;humidity
52799;DHT22;38667;42.872;74.622;2022-12-04T00:00:41;-3.50;52.60
52799;DHT22;38667;42.872;74.622;2022-12-04T00:03:08;-3.50;53.40
52799;DHT22;38667;42.872;74.622;2022-12-04T00:05:34;-3.40;52.70
52799;DHT22;38667;42.872;74.622;2022-12-04T00:08:00;-3.40;50.80
52799;DHT22;38667;42.872;74.622;2022-12-04T00:10:26;-3.50;51.70
52799;DHT22;38667;42.872;74.622;2022-12-04T00:12:54;-3.50;53.20
52799;DHT22;38667;42.872;74.622;2022-12-04T00:15:21;-3.40;51.60
52799;DHT22;38667;42.872;74.622;2022-12-04T00:17:47;-3.40;51.50
52799;DHT22;38667;42.872;74.622;2022-12-04T00:20:14;-3.40;52.10
52799;DHT22;38667;42.872;74.622;2022-12-04T00:22:40;-3.40;52.10
52799;DHT22;38667;42.872;74.622;2022-12-04T00:25:07;-3.40;52.60
52799;DHT22;38667;42.872;74.622;2022-12-04T00:27:33;-3.40;53.60
52799;DHT22;38667;42.872;74.622;2022-12-04T00:30:01;-3.40;54.30
52799;DHT22;38667;42.872;74.622;2022-12-04T00:32:27;-3.40;54.40
52799;DHT22;38667;42.872;74.622;2022-12-04T00:34:54;-3.40;54.60
52799;DHT22;38667;42.872;74.622;2022-12-04T00:37:21;-3.50;54.00
52799;DHT22;38667;42.872;74.622;2022-12-04T00:39:47;-3.50;54.00
52799;DHT22;38667;42.872;74.622;2022-12-04T00:42:13;-3.50;54.90
52799;DHT22;38667;42.872;74.622;2022-12-04T00:44:39;-3.50;55.00
52799;DHT22;38667;42.872;74.622;2022-12-04T00:47:07;-3.50;55.30
52799;DHT22;38667;42.872;74.622;2022-12-04T00:49:34;-3.50;55.30
52799;DHT22;38667;42.872;74.622;2022-12-04T00:52:00;-3.50;55.50
52799;DHT22;38667;42.872;74.622;2022-12-04T00:54:26;-3.50;56.10
52799;DHT22;38667;42.872;74.622;2022-12-04T00:56:53;-3.60;56.40
52799;DHT22;38667;42.872;74.622;2022-12-04T00:59:19;-3.50;56.00
52799;DHT22;38667;42.872;74.622;2022-12-04T01:01:45;-3.60;57.00
52799;DHT22;38667;42.872;74.622;2022-12-04T01:04:13;-3.60;57.50
52799;DHT22;38667;42.872;74.622;2022-12-04T01:06:39;-3.60;58.20
52799;DHT22;38667;42.872;74.622;2022-12-04T01:09:06;-3.60;57.40
52799;DHT22;38667;42.872;74.622;2022-12-04T01:11:32;-3.60;57.10
52799;DHT22;38667;42.872;74.622;2022-12-04T01:13:59;-3.60;58.10
52799;DHT22;38667;42.872;74.622;2022-12-04T01:16:28;-3.60;57.90
52799;DHT22;38667;42.872;74.622;2022-12-04T01:18:54;-3.60;59.60
52799;DHT22;38667;42.872;74.622;2022-12-04T01:21:22;-3.60;61.00
52799;DHT22;38667;42.872;74.622;2022-12-04T01:23:48;-3.60;61.70
52799;DHT22;38667;42.872;74.622;2022-12-04T01:26:15;-3.60;62.50
52799;DHT22;38667;42.872;74.622;2022-12-04T01:28:41;-3.60;63.40
52799;DHT22;38667;42.872;74.622;2022-12-04T01:31:10;-3.70;64.60
52799;DHT22;38667;42.872;74.622;2022-12-04T01:33:36;-3.70;64.80
52799;DHT22;38667;42.872;74.622;2022-12-04T01:36:05;-3.70;65.10
52799;DHT22;38667;42.872;74.622;2022-12-04T01:38:34;-3.70;65.40
52799;DHT22;38667;42.872;74.622;2022-12-04T01:41:01;-3.70;65.80
52799;DHT22;38667;42.872;74.622;2022-12-04T01:43:30;-3.70;66.00
52799;DHT22;38667;42.872;74.622;2022-12-04T01:45:57;-3.70;66.20
52799;DHT22;38667;42.872;74.622;2022-12-04T01:48:26;-3.70;66.20
52799;DHT22;38667;42.872;74.622;2022-12-04T01:50:57;-3.70;66.40
52799;DHT22;38667;42.872;74.622;2022-12-04T01:53:24;-3.70;67.10
52799;DHT22;38667;42.872;74.622;2022-12-04T01:55:52;-3.70;67.30
52799;DHT22;38667;42.872;74.622;2022-12-04T01:58:23;-3.70;67.60
52799;DHT22;38667;42.872;74.622;2022-12-04T02:00:54;-3.70;68.00
52799;DHT22;38667;42.872;74.622;2022-12-04T02:03:22;-3.60;68.90
52799;DHT22;38667;42.872;74.622;2022-12-04T02:05:48;-3.60;69.50
52799;DHT22;38667;42.872;74.622;2022-12-04T02:08:15;-3.60;68.50
52799;DHT22;38667;42.872;74.622;2022-12-04T02:10:48;-3.70;68.50
52799;DHT22;38667;42.872;74.622;2022-12-04T02:13:23;-3.70;67.90
52799;DHT22;38667;42.872;74.622;2022-12-04T02:15:56;-3.70;67.50
52799;DHT22;38667;42.872;74.622;2022-12-04T02:18:29;-3.80;68.40
52799;DHT22;38667;42.872;74.622;2022-12-04T02:20:59;-3.80;69.00
52799;DHT22;38667;42.872;74.622;2022-12-04T02:23:53;-3.80;70.40
52799;DHT22;38667;42.872;74.622;2022-12-04T02:26:31;-3.80;69.70
52799;DHT22;38667;42.872;74.622;2022-12-04T02:29:05;-3.80;69.80
52799;DHT22;38667;42.872;74.622;2022-12-04T02:31:35;-3.80;70.30
52799;DHT22;38667;42.872;74.622;2022-12-04T02:34:05;-3.80;70.30
52799;DHT22;38667;42.872;74.622;2022-12-04T02:36:38;-3.80;70.00
52799;DHT22;38667;42.872;74.622;2022-12-04T02:39:10;-3.70;69.90
52799;DHT22;38667;42.872;74.622;2022-12-04T02:41:39;-3.70;69.90
52799;DHT22;38667;42.872;74.622;2022-12-04T02:44:11;-3.60;70.40
52799;DHT22;38667;42.872;74.622;2022-12-04T02:46:41;-3.60;69.70
52799;DHT22;38667;42.872;74.622;2022-12-04T02:49:12;-3.50;69.20
52799;DHT22;38667;42.872;74.622;2022-12-04T02:51:41;-3.60;68.90
52799;DHT22;38667;42.872;74.622;2022-12-04T02:54:13;-3.60;69.40
52799;DHT22;38667;42.872;74.622;2022-12-04T02:56:44;-3.60;69.10
52799;DHT22;38667;42.872;74.622;2022-12-04T02:59:16;-3.70;70.30
52799;DHT22;38667;42.872;74.622;2022-12-04T03:01:47;-3.70;70.80
52799;DHT22;38667;42.872;74.622;2022-12-04T03:04:17;-3.70;70.70
52799;DHT22;38667;42.872;74.622;2022-12-04T03:06:48;-3.60;70.80
52799;DHT22;38667;42.872;74.622;2022-12-04T03:09:18;-3.60;70.70
52799;DHT22;38667;42.872;74.622;2022-12-04T03:11:49;-3.60;71.30
52799;DHT22;38667;42.872;74.622;2022-12-04T03:14:22;-3.60;71.30
52799;DHT22;38667;42.872;74.622;2022-12-04T03:16:51;-3.60;70.40
52799;DHT22;38667;42.872;74.622;2022-12-04T03:19:21;-3.60;70.00
52799;DHT22;38667;42.872;74.622;2022-12-04T03:21:51;-3.70;71.30
52799;DHT22;38667;42.872;74.622;2022-12-04T03:24:23;-3.70;71.90
52799;DHT22;38667;42.872;74.622;2022-12-04T03:26:56;-3.60;72.10
52799;DHT22;38667;42.872;74.622;2022-12-04T03:29:29;-3.60;71.80
52799;DHT22;38667;42.872;74.622;2022-12-04T03:31:59;-3.60;71.90
52799;DHT22;38667;42.872;74.622;2022-12-04T03:34:31;-3.60;72.60
52799;DHT22;38667;42.872;74.622;2022-12-04T03:37:03;-3.60;72.10
52799;DHT22;38667;42.872;74.622;2022-12-04T03:39:36;-3.50;72.50
52799;DHT22;38667;42.872;74.622;2022-12-04T03:42:08;-3.50;72.90
52799;DHT22;38667;42.872;74.622;2022-12-04T03:44:42;-3.40;73.00
52799;DHT22;38667;42.872;74.622;2022-12-04T03:47:12;-3.40;72.20
52799;DHT22;38667;42.872;74.622;2022-12-04T03:49:42;-3.40;71.90
52799;DHT22;38667;42.872;74.622;2022-12-04T03:52:16;-3.40;72.60
52799;DHT22;38667;42.872;74.622;2022-12-04T03:54:46;-3.40;72.80
52799;DHT22;38667;42.872;74.622;2022-12-04T03:57:17;-3.30;72.50
52799;DHT22;38667;42.872;74.622;2022-12-04T03:59:48;-3.20;72.20
52799;DHT22;38667;42.872;74.622;2022-12-04T04:02:19;-3.20;71.30
52799;DHT22;38667;42.872;74.622;2022-12-04T04:04:49;-3.10;71.50
52799;DHT22;38667;42.872;74.622;2022-12-04T04:07:20;-3.10;71.00
52799;DHT22;38667;42.872;74.622;2022-12-04T04:09:49;-3.00;70.90
52799;DHT22;38667;42.872;74.622;2022-12-04T04:12:20;-3.00;70.70
52799;DHT22;38667;42.872;74.622;2022-12-04T04:14:52;-3.00;70.80
52799;DHT22;38667;42.872;74.622;2022-12-04T04:17:24;-3.00;70.70
52799;DHT22;38667;42.872;74.622;2022-12-04T04:19:57;-3.00;70.30
52799;DHT22;38667;42.872;74.622;2022-12-04T04:22:25;-3.00;70.00
52799;DHT22;38667;42.872;74.622;2022-12-04T04:24:56;-3.00;70.80
52799;DHT22;38667;42.872;74.622;2022-12-04T04:27:23;-2.80;69.80
52799;DHT22;38667;42.872;74.622;2022-12-04T04:29:51;-2.70;68.80
52799;DHT22;38667;42.872;74.622;2022-12-04T04:32:22;-2.70;68.60
52799;DHT22;38667;42.872;74.622;2022-12-04T04:34:56;-2.70;68.50
52799;DHT22;38667;42.872;74.622;2022-12-04T04:37:31;-2.70;68.40
52799;DHT22;38667;42.872;74.622;2022-12-04T04:40:04;-2.60;68.40
52799;DHT22;38667;42.872;74.622;2022-12-04T04:42:35;-2.60;68.30
52799;DHT22;38667;42.872;74.622;2022-12-04T04:45:10;-2.70;67.80
52799;DHT22;38667;42.872;74.622;2022-12-04T04:47:43;-2.70;68.10
52799;DHT22;38667;42.872;74.622;2022-12-04T04:50:11;-2.60;68.00
52799;DHT22;38667;42.872;74.622;2022-12-04T04:52:42;-2.60;67.70
52799;DHT22;38667;42.872;74.622;2022-12-04T04:55:10;-2.70;68.10
52799;DHT22;38667;42.872;74.622;2022-12-04T04:57:37;-2.60;68.80
52799;DHT22;38667;42.872;74.622;2022-12-04T05:00:07;-2.50;68.10
52799;DHT22;38667;42.872;74.622;2022-12-04T05:02:35;-2.40;67.50
52799;DHT22;38667;42.872;74.622;2022-12-04T05:05:02;-2.30;67.50
52799;DHT22;38667;42.872;74.622;2022-12-04T05:07:28;-2.40;67.40
52799;DHT22;38667;42.872;74.622;2022-12-04T05:09:55;-2.30;67.20
52799;DHT22;38667;42.872;74.622;2022-12-04T05:12:21;-2.30;67.20
52799;DHT22;38667;42.872;74.622;2022-12-04T05:14:47;-2.30;67.20
52799;DHT22;38667;42.872;74.622;2022-12-04T05:17:16;-2.40;66.60
52799;DHT22;38667;42.872;74.622;2022-12-04T05:19:42;-2.40;67.80
52799;DHT22;38667;42.872;74.622;2022-12-04T05:22:08;-2.30;68.00
52799;DHT22;38667;42.872;74.622;2022-12-04T05:24:34;-2.30;67.00
52799;DHT22;38667;42.872;74.622;2022-12-04T05:27:01;-2.30;67.50
52799;DHT22;38667;42.872;74.622;2022-12-04T05:29:27;-2.30;67.50
52799;DHT22;38667;42.872;74.622;2022-12-04T05:31:53;-2.10;65.50
52799;DHT22;38667;42.872;74.622;2022-12-04T05:34:21;-2.10;66.00
52799;DHT22;38667;42.872;74.622;2022-12-04T05:36:47;-2.00;66.50
52799;DHT22;38667;42.872;74.622;2022-12-04T05:39:14;-2.00;65.40
52799;DHT22;38667;42.872;74.622;2022-12-04T05:41:40;-2.10;65.20
52799;DHT22;38667;42.872;74.622;2022-12-04T05:44:06;-2.10;65.60
52799;DHT22;38667;42.872;74.622;2022-12-04T05:46:32;-2.10;67.40
52799;DHT22;38667;42.872;74.622;2022-12-04T05:48:59;-2.10;66.40
52799;DHT22;38667;42.872;74.622;2022-12-04T05:51:27;-2.10;65.90
52799;DHT22;38667;42.872;74.622;2022-12-04T05:53:53;-2.10;66.10
52799;DHT22;38667;42.872;74.622;2022-12-04T05:56:19;-2.00;65.40
52799;DHT22;38667;42.872;74.622;2022-12-04T05:58:46;-2.00;65.60
52799;DHT22;38667;42.872;74.622;2022-12-04T06:01:15;-2.00;64.30
52799;DHT22;38667;42.872;74.622;2022-12-04T06:03:42;-1.90;63.90
52799;DHT22;38667;42.872;74.622;2022-12-04T06:06:13;-1.90;63.60
52799;DHT22;38667;42.872;74.622;2022-12-04T06:08:41;-2.00;62.90
52799;DHT22;38667;42.872;74.622;2022-12-04T06:11:12;-2.00;64.30
52799;DHT22;38667;42.872;74.622;2022-12-04T06:13:40;-2.00;63.70
52799;DHT22;38667;42.872;74.622;2022-12-04T06:16:11;-2.10;63.80
52799;DHT22;38667;42.872;74.622;2022-12-04T06:18:38;-2.10;64.90
52799;DHT22;38667;42.872;74.622;2022-12-04T06:21:04;-2.10;64.30
52799;DHT22;38667;42.872;74.622;2022-12-04T06:23:31;-2.10;62.70
52799;DHT22;38667;42.872;74.622;2022-12-04T06:26:01;-2.10;62.80
52799;DHT22;38667;42.872;74.622;2022-12-04T06:28:27;-2.20;63.20
52799;DHT22;38667;42.872;74.622;2022-12-04T06:30:54;-2.20;63.70
52799;DHT22;38667;42.872;74.622;2022-12-04T06:33:20;-2.30;63.60
52799;DHT22;38667;42.872;74.622;2022-12-04T06:35:46;-2.30;63.70
52799;DHT22;38667;42.872;74.622;2022-12-04T06:38:13;-2.20;64.50
52799;DHT22;38667;42.872;74.622;2022-12-04T06:40:39;-2.30;64.00
52799;DHT22;38667;42.872;74.622;2022-12-04T06:43:07;-2.30;63.60
52799;DHT22;38667;42.872;74.622;2022-12-04T06:45:33;-2.40;64.50
52799;DHT22;38667;42.872;74.622;2022-12-04T06:47:59;-2.40;64.60
52799;DHT22;38667;42.872;74.622;2022-12-04T06:50:26;-2.40;65.10
52799;DHT22;38667;42.872;74.622;2022-12-04T06:52:52;-2.40;64.50
52799;DHT22;38667;42.872;74.622;2022-12-04T06:55:18;-2.40;64.40
52799;DHT22;38667;42.872;74.622;2022-12-04T06:57:45;-2.50;64.80
52799;DHT22;38667;42.872;74.622;2022-12-04T07:00:13;-2.40;64.60
52799;DHT22;38667;42.872;74.622;2022-12-04T07:02:40;-2.30;65.30
52799;DHT22;38667;42.872;74.622;2022-12-04T07:05:07;-2.30;64.60
52799;DHT22;38667;42.872;74.622;2022-12-04T07:07:33;-2.40;64.40
52799;DHT22;38667;42.872;74.622;2022-12-04T07:09:59;-2.40;66.10
52799;DHT22;38667;42.872;74.622;2022-12-04T07:12:25;-2.40;66.40
52799;DHT22;38667;42.872;74.622;2022-12-04T07:14:52;-2.30;66.60
52799;DHT22;38667;42.872;74.622;2022-12-04T07:17:20;-2.40;65.20
52799;DHT22;38667;42.872;74.622;2022-12-04T07:19:46;-2.50;66.30
52799;DHT22;38667;42.872;74.622;2022-12-04T07:22:12;-2.50;67.20
52799;DHT22;38667;42.872;74.622;2022-12-04T07:24:39;-2.50;67.20
52799;DHT22;38667;42.872;74.622;2022-12-04T07:27:05;-2.50;67.40
52799;DHT22;38667;42.872;74.622;2022-12-04T07:29:31;-2.50;67.60
52799;DHT22;38667;42.872;74.622;2022-12-04T07:31:57;-2.60;68.00
52799;DHT22;38667;42.872;74.622;2022-12-04T07:34:25;-2.70;67.70
52799;DHT22;38667;42.872;74.622;2022-12-04T07:36:52;-2.60;68.20
52799;DHT22;38667;42.872;74.622;2022-12-04T07:39:18;-2.60;69.00
52799;DHT22;38667;42.872;74.622;2022-12-04T07:41:44;-2.60;68.50
52799;DHT22;38667;42.872;74.622;2022-12-04T07:44:10;-2.70;68.00
52799;DHT22;38667;42.872;74.622;2022-12-04T07:46:37;-2.60;68.90
52799;DHT22;38667;42.872;74.622;2022-12-04T07:49:03;-2.60;68.70
52799;DHT22;38667;42.872;74.622;2022-12-04T07:51:31;-2.50;67.20
52799;DHT22;38667;42.872;74.622;2022-12-04T07:53:57;-2.40;67.80
52799;DHT22;38667;42.872;74.622;2022-12-04T07:56:23;-2.40;67.00
52799;DHT22;38667;42.872;74.622;2022-12-04T07:58:50;-2.40;64.60
52799;DHT22;38667;42.872;74.622;2022-12-04T08:01:18;-2.50;63.40
52799;DHT22;38667;42.872;74.622;2022-12-04T08:03:48;-2.40;63.30
52799;DHT22;38667;42.872;74.622;2022-12-04T08:06:15;-2.40;63.90
52799;DHT22;38667;42.872;74.622;2022-12-04T08:08:44;-2.30;62.20
52799;DHT22;38667;42.872;74.622;2022-12-04T08:11:12;-2.30;62.70
52799;DHT22;38667;42.872;74.622;2022-12-04T08:13:39;-2.30;63.20
52799;DHT22;38667;42.872;74.622;2022-12-04T08:16:07;-2.30;64.80
52799;DHT22;38667;42.872;74.622;2022-12-04T08:18:34;-2.40;65.70
52799;DHT22;38667;42.872;74.622;2022-12-04T08:21:05;-2.40;64.00
52799;DHT22;38667;42.872;74.622;2022-12-04T08:23:32;-2.50;63.80
52799;DHT22;38667;42.872;74.622;2022-12-04T08:26:01;-2.60;64.10
52799;DHT22;38667;42.872;74.622;2022-12-04T08:28:28;-2.50;65.60
52799;DHT22;38667;42.872;74.622;2022-12-04T08:31:00;-2.50;66.00
52799;DHT22;38667;42.872;74.622;2022-12-04T08:33:27;-2.60;66.10
52799;DHT22;38667;42.872;74.622;2022-12-04T08:35:53;-2.60;66.80
52799;DHT22;38667;42.872;74.622;2022-12-04T08:38:19;-2.60;67.10
52799;DHT22;38667;42.872;74.622;2022-12-04T08:40:45;-2.60;67.70
52799;DHT22;38667;42.872;74.622;2022-12-04T08:43:13;-2.50;66.80
52799;DHT22;38667;42.872;74.622;2022-12-04T08:45:40;-2.50;67.00
52799;DHT22;38667;42.872;74.622;2022-12-04T08:48:06;-2.50;66.90
52799;DHT22;38667;42.872;74.622;2022-12-04T08:50:32;-2.50;68.20
52799;DHT22;38667;42.872;74.622;2022-12-04T08:52:58;-2.60;67.90
52799;DHT22;38667;42.872;74.622;2022-12-04T08:55:25;-2.70;68.50
52799;DHT22;38667;42.872;74.622;2022-12-04T08:57:51;-2.70;68.20
52799;DHT22;38667;42.872;74.622;2022-12-04T09:00:20;-2.70;69.20
52799;DHT22;38667;42.872;74.622;2022-12-04T09:02:48;-2.70;70.10
52799;DHT22;38667;42.872;74.622;2022-12-04T09:05:14;-2.60;70.00
52799;DHT22;38667;42.872;74.622;2022-12-04T09:07:41;-2.60;69.20
52799;DHT22;38667;42.872;74.622;2022-12-04T09:10:08;-2.60;69.70
52799;DHT22;38667;42.872;74.622;2022-12-04T09:12:34;-2.70;71.00
52799;DHT22;38667;42.872;74.622;2022-12-04T09:15:01;-2.60;70.70
52799;DHT22;38667;42.872;74.622;2022-12-04T09:17:28;-2.50;70.40
52799;DHT22;38667;42.872;74.622;2022-12-04T09:19:55;-2.50;69.90
52799;DHT22;38667;42.872;74.622;2022-12-04T09:22:21;-2.50;69.40
52799;DHT22;38667;42.872;74.622;2022-12-04T09:24:47;-2.60;70.20
52799;DHT22;38667;42.872;74.622;2022-12-04T09:27:14;-2.50;70.70
52799;DHT22;38667;42.872;74.622;2022-12-04T09:29:40;-2.50;71.00
52799;DHT22;38667;42.872;74.622;2022-12-04T09:32:06;-2.50;69.30
52799;DHT22;38667;42.872;74.622;2022-12-04T09:34:34;-2.60;69.20
52799;DHT22;38667;42.872;74.622;2022-12-04T09:37:00;-2.70;70.40
52799;DHT22;38667;42.872;74.622;2022-12-04T09:39:27;-2.70;70.10
52799;DHT22;38667;42.872;74.622;2022-12-04T09:42:08;-2.80;70.30
52799;DHT22;38667;42.872;74.622;2022-12-04T09:44:39;-2.80;71.50
52799;DHT22;38667;42.872;74.622;2022-12-04T09:47:15;-2.80;71.20
52799;DHT22;38667;42.872;74.622;2022-12-04T09:49:49;-2.80;72.20
52799;DHT22;38667;42.872;74.622;2022-12-04T09:52:27;-2.80;72.30
52799;DHT22;38667;42.872;74.622;2022-12-04T09:54:54;-2.70;72.40
52799;DHT22;38667;42.872;74.622;2022-12-04T09:57:27;-2.70;72.00
52799;DHT22;38667;42.872;74.622;2022-12-04T09:59:56;-2.70;72.50
52799;DHT22;38667;42.872;74.622;2022-12-04T10:02:33;-2.70;72.50
52799;DHT22;38667;42.872;74.622;2022-12-04T10:05:01;-2.60;71.40
52799;DHT22;38667;42.872;74.622;2022-12-04T10:07:31;-2.60;70.40
52799;DHT22;38667;42.872;74.622;2022-12-04T10:10:03;-2.70;70.60
52799;DHT22;38667;42.872;74.622;2022-12-04T10:12:37;-2.70;70.70
52799;DHT22;38667;42.872;74.622;2022-12-04T10:15:14;-2.70;71.30
52799;DHT22;38667;42.872;74.622;2022-12-04T10:17:58;-2.60;71.40
52799;DHT22;38667;42.872;74.622;2022-12-04T10:20:52;-2.60;71.40
52799;DHT22;38667;42.872;74.622;2022-12-04T10:23:27;-2.60;71.70
52799;DHT22;38667;42.872;74.622;2022-12-04T10:25:55;-2.60;71.70
52799;DHT22;38667;42.872;74.622;2022-12-04T10:28:28;-2.60;72.00
52799;DHT22;38667;42.872;74.622;2022-12-04T10:30:59;-2.60;71.10
52799;DHT22;38667;42.872;74.622;2022-12-04T10:33:31;-2.60;71.50
52799;DHT22;38667;42.872;74.622;2022-12-04T10:36:00;-2.60;71.60
52799;DHT22;38667;42.872;74.622;2022-12-04T10:38:32;-2.60;71.90
52799;DHT22;38667;42.872;74.622;2022-12-04T10:41:04;-2.50;71.10
52799;DHT22;38667;42.872;74.622;2022-12-04T10:43:38;-2.50;71.00
52799;DHT22;38667;42.872;74.622;2022-12-04T10:46:08;-2.50;70.70
52799;DHT22;38667;42.872;74.622;2022-12-04T10:48:38;-2.50;70.70
52799;DHT22;38667;42.872;74.622;2022-12-04T10:51:13;-2.50;70.50
52799;DHT22;38667;42.872;74.622;2022-12-04T10:53:39;-2.50;70.60
52799;DHT22;38667;42.872;74.622;2022-12-04T10:56:11;-2.50;71.40
52799;DHT22;38667;42.872;74.622;2022-12-04T10:58:37;-2.50;70.30
52799;DHT22;38667;42.872;74.622;2022-12-04T11:01:06;-2.50;70.30
52799;DHT22;38667;42.872;74.622;2022-12-04T11:03:33;-2.50;70.30
52799;DHT22;38667;42.872;74.622;2022-12-04T11:06:01;-2.50;70.20
52799;DHT22;38667;42.872;74.622;2022-12-04T11:08:35;-2.50;71.00
52799;DHT22;38667;42.872;74.622;2022-12-04T11:11:05;-2.50;70.90
52799;DHT22;38667;42.872;74.622;2022-12-04T11:13:33;-2.50;70.60
52799;DHT22;38667;42.872;74.622;2022-12-04T11:15:59;-2.60;70.10
52799;DHT22;38667;42.872;74.622;2022-12-04T11:18:27;-2.60;70.40
52799;DHT22;38667;42.872;74.622;2022-12-04T11:20:57;-2.60;70.50
52799;DHT22;38667;42.872;74.622;2022-12-04T11:23:25;-2.60;70.40
52799;DHT22;38667;42.872;74.622;2022-12-04T11:25:55;-2.70;70.90
52799;DHT22;38667;42.872;74.622;2022-12-04T11:28:25;-2.70;71.40
52799;DHT22;38667;42.872;74.622;2022-12-04T11:30:53;-2.80;71.90
52799;DHT22;38667;42.872;74.622;2022-12-04T11:33:25;-2.80;72.20
52799;DHT22;38667;42.872;74.622;2022-12-04T11:35:53;-2.80;72.60
52799;DHT22;38667;42.872;74.622;2022-12-04T11:38:23;-2.80;72.60
52799;DHT22;38667;42.872;74.622;2022-12-04T11:40:55;-2.70;72.50
52799;DHT22;38667;42.872;74.622;2022-12-04T11:43:24;-2.70;72.50
52799;DHT22;38667;42.872;74.622;2022-12-04T11:45:55;-2.70;72.50
52799;DHT22;38667;42.872;74.622;2022-12-04T11:48:21;-2.70;72.50
52799;DHT22;38667;42.872;74.622;2022-12-04T11:50:54;-2.70;72.30
52799;DHT22;38667;42.872;74.622;2022-12-04T11:53:25;-2.70;72.30
52799;DHT22;38667;42.872;74.622;2022-12-04T11:56:16;-2.70;73.00
52799;DHT22;38667;42.872;74.622;2022-12-04T11:59:03;-2.80;72.80
52799;DHT22;38667;42.872;74.622;2022-12-04T12:01:41;-2.80;73.40
52799;DHT22;38667;42.872;74.622;2022-12-04T12:04:30;-2.80;73.30
52799;DHT22;38667;42.872;74.622;2022-12-04T12:07:12;-2.80;73.60
52799;DHT22;38667;42.872;74.622;2022-12-04T12:09:45;-2.80;74.00
52799;DHT22;38667;42.872;74.622;2022-12-04T12:12:18;-2.80;74.30
52799;DHT22;38667;42.872;74.622;2022-12-04T12:14:55;-2.90;75.00
52799;DHT22;38667;42.872;74.622;2022-12-04T12:17:31;-2.90;75.00
52799;DHT22;38667;42.872;74.622;2022-12-04T12:20:07;-2.90;74.80
52799;DHT22;38667;42.872;74.622;2022-12-04T12:22:57;-2.90;74.90
52799;DHT22;38667;42.872;74.622;2022-12-04T12:25:31;-2.90;75.10
52799;DHT22;38667;42.872;74.622;2022-12-04T12:28:12;-2.90;75.30
52799;DHT22;38667;42.872;74.622;2022-12-04T12:30:52;-2.90;75.30
52799;DHT22;38667;42.872;74.622;2022-12-04T12:33:21;-2.90;75.30
52799;DHT22;38667;42.872;74.622;2022-12-04T12:35:56;-3.00;75.40
52799;DHT22;38667;42.872;74.622;2022-12-04T12:38:25;-2.90;75.70
52799;DHT22;38667;42.872;74.622;2022-12-04T12:40:56;-2.90;75.40
52799;DHT22;38667;42.872;74.622;2022-12-04T12:43:27;-3.00;75.60
52799;DHT22;38667;42.872;74.622;2022-12-04T12:45:57;-3.00;76.10
52799;DHT22;38667;42.872;74.622;2022-12-04T12:48:29;-3.00;76.30
52799;DHT22;38667;42.872;74.622;2022-12-04T12:51:01;-3.00;76.00
52799;DHT22;38667;42.872;74.622;2022-12-04T12:53:33;-3.00;75.60
52799;DHT22;38667;42.872;74.622;2022-12-04T12:56:03;-3.00;75.90
52799;DHT22;38667;42.872;74.622;2022-12-04T12:58:37;-3.00;75.80
52799;DHT22;38667;42.872;74.622;2022-12-04T13:01:10;-3.00;76.00
52799;DHT22;38667;42.872;74.622;2022-12-04T13:03:43;-3.00;75.70
52799;DHT22;38667;42.872;74.622;2022-12-04T13:06:13;-3.00;75.60
52799;DHT22;38667;42.872;74.622;2022-12-04T13:08:44;-3.00;75.90
52799;DHT22;38667;42.872;74.622;2022-12-04T13:11:15;-3.10;75.70
52799;DHT22;38667;42.872;74.622;2022-12-04T13:13:48;-3.10;76.10
52799;DHT22;38667;42.872;74.622;2022-12-04T13:16:18;-3.10;76.00
52799;DHT22;38667;42.872;74.622;2022-12-04T13:18:50;-3.00;76.00
52799;DHT22;38667;42.872;74.622;2022-12-04T13:21:28;-3.00;76.50
52799;DHT22;38667;42.872;74.622;2022-12-04T13:27:02;-3.00;76.70
52799;DHT22;38667;42.872;74.622;2022-12-04T13:29:44;-3.10;77.00
52799;DHT22;38667;42.872;74.622;2022-12-04T13:32:34;-3.10;77.30
52799;DHT22;38667;42.872;74.622;2022-12-04T13:35:09;-3.10;78.10
52799;DHT22;38667;42.872;74.622;2022-12-04T13:37:52;-3.10;77.90
52799;DHT22;38667;42.872;74.622;2022-12-04T13:40:29;-3.20;78.00
52799;DHT22;38667;42.872;74.622;2022-12-04T13:43:18;-3.20;78.30
52799;DHT22;38667;42.872;74.622;2022-12-04T13:45:49;-3.10;78.70
52799;DHT22;38667;42.872;74.622;2022-12-04T13:48:27;-3.10;78.10
52799;DHT22;38667;42.872;74.622;2022-12-04T13:51:01;-3.10;77.90
52799;DHT22;38667;42.872;74.622;2022-12-04T13:53:32;-3.10;78.00
52799;DHT22;38667;42.872;74.622;2022-12-04T13:55:59;-3.20;78.00
52799;DHT22;38667;42.872;74.622;2022-12-04T13:58:28;-3.20;77.90
52799;DHT22;38667;42.872;74.622;2022-12-04T14:01:02;-3.20;77.90
52799;DHT22;38667;42.872;74.622;2022-12-04T14:03:31;-3.20;77.70
52799;DHT22;38667;42.872;74.622;2022-12-04T14:05:59;-3.30;77.60
52799;DHT22;38667;42.872;74.622;2022-12-04T14:08:28;-3.30;77.70
52799;DHT22;38667;42.872;74.622;2022-12-04T14:10:59;-3.30;77.60
52799;DHT22;38667;42.872;74.622;2022-12-04T14:13:28;-3.20;77.30
52799;DHT22;38667;42.872;74.622;2022-12-04T14:16:06;-3.30;77.60
52799;DHT22;38667;42.872;74.622;2022-12-04T14:18:34;-3.30;77.60
52799;DHT22;38667;42.872;74.622;2022-12-04T14:21:02;-3.30;77.50
52799;DHT22;38667;42.872;74.622;2022-12-04T14:23:35;-3.30;77.40
52799;DHT22;38667;42.872;74.622;2022-12-04T14:26:01;-3.50;78.20
52799;DHT22;38667;42.872;74.622;2022-12-04T14:28:40;-3.50;78.40
52799;DHT22;38667;42.872;74.622;2022-12-04T14:31:24;-3.40;78.00
52799;DHT22;38667;42.872;74.622;2022-12-04T14:33:57;-3.40;78.00
52799;DHT22;38667;42.872;74.622;2022-12-04T14:36:25;-3.40;78.10
52799;DHT22;38667;42.872;74.622;2022-12-04T14:39:01;-3.40;77.80
52799;DHT22;38667;42.872;74.622;2022-12-04T14:41:28;-3.40;77.50
52799;DHT22;38667;42.872;74.622;2022-12-04T14:43:54;-3.40;77.60
52799;DHT22;38667;42.872;74.622;2022-12-04T14:46:27;-3.40;77.90
52799;DHT22;38667;42.872;74.622;2022-12-04T14:49:03;-3.40;77.50
52799;DHT22;38667;42.872;74.622;2022-12-04T14:51:34;-3.30;77.60
52799;DHT22;38667;42.872;74.622;2022-12-04T14:54:08;-3.30;77.10
52799;DHT22;38667;42.872;74.622;2022-12-04T14:56:48;-3.30;76.90
52799;DHT22;38667;42.872;74.622;2022-12-04T14:59:18;-3.40;77.00
52799;DHT22;38667;42.872;74.622;2022-12-04T15:01:47;-3.50;78.10
52799;DHT22;38667;42.872;74.622;2022-12-04T15:04:21;-3.50;78.20
52799;DHT22;38667;42.872;74.622;2022-12-04T15:06:49;-3.50;78.50
52799;DHT22;38667;42.872;74.622;2022-12-04T15:09:18;-3.50;77.80
52799;DHT22;38667;42.872;74.622;2022-12-04T15:11:45;-3.40;78.10
52799;DHT22;38667;42.872;74.622;2022-12-04T15:14:13;-3.40;77.50
52799;DHT22;38667;42.872;74.622;2022-12-04T15:16:40;-3.40;77.80
52799;DHT22;38667;42.872;74.622;2022-12-04T15:19:16;-3.40;77.80
52799;DHT22;38667;42.872;74.622;2022-12-04T15:21:43;-3.40;77.60
52799;DHT22;38667;42.872;74.622;2022-12-04T15:24:14;-3.40;77.90
52799;DHT22;38667;42.872;74.622;2022-12-04T15:26:42;-3.40;78.10
52799;DHT22;38667;42.872;74.622;2022-12-04T15:29:12;-3.40;78.30
52799;DHT22;38667;42.872;74.622;2022-12-04T15:31:44;-3.40;78.10
52799;DHT22;38667;42.872;74.622;2022-12-04T15:34:15;-3.40;78.10